sensor_id;sensor_type;location;lat;lon;timestamp;temperature;humidity
9033;DHT22;4551;53.164;8.210;2022-08-05T00:01:38;19.30;99.90
9033;DHT22;4551;53.164;8.210;2022-08-05T00:04:21;19.20;99.90
9033;DHT22;4551;53.164;8.210;2022-08-05T00:07:08;19.20;99.90
9033;DHT22;4551;53.164;8.210;2022-08-05T00:10:02;19.10;99.90
9033;DHT22;4551;53.164;8.210;2022-08-05T00:12:51;19.00;99.90
9033;DHT22;4551;53.164;8.210;2022-08-05T00:15:22;19.00;99.90
9033;DHT22;4551;53.164;8.210;2022-08-05T00:18:11;19.00;99.90
9033;DHT22;4551;53.164;8.210;2022-08-05T00:21:06;19.00;99.90
9033;DHT22;4551;53.164;8.210;2022-08-05T00:23:35;19.00;99.90
9033;DHT22;4551;53.164;8.210;2022-08-05T00:26:13;19.00;99.90
9033;DHT22;4551;53.164;8.210;2022-08-05T00:28:58;19.00;99.90
9033;DHT22;4551;53.164;8.210;2022-08-05T00:31:28;19.00;99.90
9033;DHT22;4551;53.164;8.210;2022-08-05T00:34:16;19.00;99.90
9033;DHT22;4551;53.164;8.210;2022-08-05T00:37:04;19.10;99.90
9033;DHT22;4551;53.164;8.210;2022-08-05T00:39:38;19.10;99.90
9033;DHT22;4551;53.164;8.210;2022-08-05T00:42:41;19.00;99.90
9033;DHT22;4551;53.164;8.210;2022-08-05T00:45:19;19.10;99.90
9033;DHT22;4551;53.164;8.210;2022-08-05T00:48:06;19.10;99.90
9033;DHT22;4551;53.164;8.210;2022-08-05T00:50:54;19.10;99.90
9033;DHT22;4551;53.164;8.210;2022-08-05T00:53:23;19.00;99.90
9033;DHT22;4551;53.164;8.210;2022-08-05T00:56:11;18.90;99.90
9033;DHT22;4551;53.164;8.210;2022-08-05T00:58:43;18.80;99.90
9033;DHT22;4551;53.164;8.210;2022-08-05T01:01:14;18.80;99.90
9033;DHT22;4551;53.164;8.210;2022-08-05T01:04:02;18.80;99.90
9033;DHT22;4551;53.164;8.210;2022-08-05T01:06:40;18.80;99.90
9033;DHT22;4551;53.164;8.210;2022-08-05T01:09:14;18.70;99.90
9033;DHT22;4551;53.164;8.210;2022-08-05T01:11:48;18.70;99.90
9033;DHT22;4551;53.164;8.210;2022-08-05T01:14:23;18.80;99.90
9033;DHT22;4551;53.164;8.210;2022-08-05T01:16:58;18.80;99.90
9033;DHT22;4551;53.164;8.210;2022-08-05T01:19:35;18.80;99.90
9033;DHT22;4551;53.164;8.210;2022-08-05T01:22:36;18.80;99.90
9033;DHT22;4551;53.164;8.210;2022-08-05T01:25:36;18.80;99.90
9033;DHT22;4551;53.164;8.210;2022-08-05T01:28:27;18.70;99.90
9033;DHT22;4551;53.164;8.210;2022-08-05T01:31:01;18.70;99.90
9033;DHT22;4551;53.164;8.210;2022-08-05T01:33:37;18.70;99.90
9033;DHT22;4551;53.164;8.210;2022-08-05T01:36:12;18.60;99.90
9033;DHT22;4551;53.164;8.210;2022-08-05T01:38:43;18.60;99.90
9033;DHT22;4551;53.164;8.210;2022-08-05T01:41:17;18.60;99.90
9033;DHT22;4551;53.164;8.210;2022-08-05T01:43:50;18.60;99.90
9033;DHT22;4551;53.164;8.210;2022-08-05T01:46:19;18.60;99.90
9033;DHT22;4551;53.164;8.210;2022-08-05T01:49:10;18.60;99.90
9033;DHT22;4551;53.164;8.210;2022-08-05T01:51:53;18.50;99.90
9033;DHT22;4551;53.164;8.210;2022-08-05T01:54:28;18.40;99.90
9033;DHT22;4551;53.164;8.210;2022-08-05T01:56:59;18.50;99.90
9033;DHT22;4551;53.164;8.210;2022-08-05T01:59:50;18.50;99.90
9033;DHT22;4551;53.164;8.210;2022-08-05T02:02:20;18.40;99.90
9033;DHT22;4551;53.164;8.210;2022-08-05T02:04:57;18.40;99.90
9033;DHT22;4551;53.164;8.210;2022-08-05T02:07:29;18.30;99.90
9033;DHT22;4551;53.164;8.210;2022-08-05T02:09:59;18.20;99.90
9033;DHT22;4551;53.164;8.210;2022-08-05T02:12:33;18.10;99.90
9033;DHT22;4551;53.164;8.210;2022-08-05T02:15:07;18.10;99.90
9033;DHT22;4551;53.164;8.210;2022-08-05T02:17:44;18.10;99.90
9033;DHT22;4551;53.164;8.210;2022-08-05T02:20:45;18.10;99.90
9033;DHT22;4551;53.164;8.210;2022-08-05T02:23:17;18.10;99.90
9033;DHT22;4551;53.164;8.210;2022-08-05T02:25:48;18.10;99.90
9033;DHT22;4551;53.164;8.210;2022-08-05T02:28:22;18.20;99.90
9033;DHT22;4551;53.164;8.210;2022-08-05T02:31:01;18.20;99.90
9033;DHT22;4551;53.164;8.210;2022-08-05T02:33:43;18.20;99.90
9033;DHT22;4551;53.164;8.210;2022-08-05T02:36:18;18.20;99.90
9033;DHT22;4551;53.164;8.210;2022-08-05T02:38:55;18.20;99.90
9033;DHT22;4551;53.164;8.210;2022-08-05T02:41:25;18.20;99.90
9033;DHT22;4551;53.164;8.210;2022-08-05T02:44:09;18.10;99.90
9033;DHT22;4551;53.164;8.210;2022-08-05T02:46:43;18.10;99.90
9033;DHT22;4551;53.164;8.210;2022-08-05T02:49:29;18.20;99.90
9033;DHT22;4551;53.164;8.210;2022-08-05T02:52:06;18.20;99.90
9033;DHT22;4551;53.164;8.210;2022-08-05T02:54:36;18.10;99.90
9033;DHT22;4551;53.164;8.210;2022-08-05T02:57:10;18.00;99.90
9033;DHT22;4551;53.164;8.210;2022-08-05T03:00:00;18.00;99.90
9033;DHT22;4551;53.164;8.210;2022-08-05T03:02:33;17.90;99.90
9033;DHT22;4551;53.164;8.210;2022-08-05T03:05:07;17.90;99.90
9033;DHT22;4551;53.164;8.210;2022-08-05T03:07:38;17.90;99.90
9033;DHT22;4551;53.164;8.210;2022-08-05T03:10:27;17.90;99.90
9033;DHT22;4551;53.164;8.210;2022-08-05T03:12:56;17.90;99.90
9033;DHT22;4551;53.164;8.210;2022-08-05T03:15:23;17.90;99.90
9033;DHT22;4551;53.164;8.210;2022-08-05T03:17:53;17.90;99.90
9033;DHT22;4551;53.164;8.210;2022-08-05T03:20:25;17.90;99.90
9033;DHT22;4551;53.164;8.210;2022-08-05T03:22:53;17.90;99.90
9033;DHT22;4551;53.164;8.210;2022-08-05T03:25:24;17.90;99.90
9033;DHT22;4551;53.164;8.210;2022-08-05T03:28:13;17.90;99.90
9033;DHT22;4551;53.164;8.210;2022-08-05T03:30:46;17.80;99.90
9033;DHT22;4551;53.164;8.210;2022-08-05T03:33:18;17.80;99.90
9033;DHT22;4551;53.164;8.210;2022-08-05T03:35:48;17.70;99.90
9033;DHT22;4551;53.164;8.210;2022-08-05T03:38:17;17.70;99.90
9033;DHT22;4551;53.164;8.210;2022-08-05T03:40:59;17.70;99.90
9033;DHT22;4551;53.164;8.210;2022-08-05T03:43:37;17.70;99.90
9033;DHT22;4551;53.164;8.210;2022-08-05T03:46:25;17.60;99.90
9033;DHT22;4551;53.164;8.210;2022-08-05T03:48:59;17.60;99.90
9033;DHT22;4551;53.164;8.210;2022-08-05T03:51:31;17.60;99.90
9033;DHT22;4551;53.164;8.210;2022-08-05T03:54:29;17.60;99.90
9033;DHT22;4551;53.164;8.210;2022-08-05T03:57:21;17.60;99.90
9033;DHT22;4551;53.164;8.210;2022-08-05T04:00:09;17.50;99.90
9033;DHT22;4551;53.164;8.210;2022-08-05T04:02:43;17.60;99.90
9033;DHT22;4551;53.164;8.210;2022-08-05T04:05:28;17.60;99.90
9033;DHT22;4551;53.164;8.210;2022-08-05T04:08:03;17.60;99.90
9033;DHT22;4551;53.164;8.210;2022-08-05T04:10:53;17.50;99.90
9033;DHT22;4551;53.164;8.210;2022-08-05T04:13:21;17.50;99.90
9033;DHT22;4551;53.164;8.210;2022-08-05T04:15:50;17.60;99.90
9033;DHT22;4551;53.164;8.210;2022-08-05T04:18:30;17.60;99.90
9033;DHT22;4551;53.164;8.210;2022-08-05T04:21:04;17.60;99.90
9033;DHT22;4551;53.164;8.210;2022-08-05T04:23:37;17.60;99.90
9033;DHT22;4551;53.164;8.210;2022-08-05T04:26:26;17.70;99.90
9033;DHT22;4551;53.164;8.210;2022-08-05T04:28:58;17.70;99.90
9033;DHT22;4551;53.164;8.210;2022-08-05T04:31:33;17.60;99.90
9033;DHT22;4551;53.164;8.210;2022-08-05T04:34:05;17.60;99.90
9033;DHT22;4551;53.164;8.210;2022-08-05T04:36:54;17.70;99.90
9033;DHT22;4551;53.164;8.210;2022-08-05T04:39:23;17.60;99.90
9033;DHT22;4551;53.164;8.210;2022-08-05T04:41:53;17.60;99.90
9033;DHT22;4551;53.164;8.210;2022-08-05T04:44:22;17.60;99.90
9033;DHT22;4551;53.164;8.210;2022-08-05T04:46:56;17.50;99.90
9033;DHT22;4551;53.164;8.210;2022-08-05T04:49:25;17.50;99.90
9033;DHT22;4551;53.164;8.210;2022-08-05T04:52:15;17.50;99.90
9033;DHT22;4551;53.164;8.210;2022-08-05T04:54:45;17.50;99.90
9033;DHT22;4551;53.164;8.210;2022-08-05T04:57:15;17.50;99.90
9033;DHT22;4551;53.164;8.210;2022-08-05T04:59:43;17.50;99.90
9033;DHT22;4551;53.164;8.210;2022-08-05T05:02:14;17.50;99.90
9033;DHT22;4551;53.164;8.210;2022-08-05T05:05:02;17.50;99.90
9033;DHT22;4551;53.164;8.210;2022-08-05T05:07:52;17.50;99.90
9033;DHT22;4551;53.164;8.210;2022-08-05T05:10:27;17.50;99.90
9033;DHT22;4551;53.164;8.210;2022-08-05T05:12:55;17.60;99.90
9033;DHT22;4551;53.164;8.210;2022-08-05T05:15:24;17.60;99.90
9033;DHT22;4551;53.164;8.210;2022-08-05T05:18:13;17.70;99.90
9033;DHT22;4551;53.164;8.210;2022-08-05T05:21:00;17.70;99.90
9033;DHT22;4551;53.164;8.210;2022-08-05T05:23:31;17.70;99.90
9033;DHT22;4551;53.164;8.210;2022-08-05T05:26:19;17.80;99.90
9033;DHT22;4551;53.164;8.210;2022-08-05T05:28:59;18.00;99.90
9033;DHT22;4551;53.164;8.210;2022-08-05T05:31:28;17.80;99.90
9033;DHT22;4551;53.164;8.210;2022-08-05T05:33:57;17.90;99.90
9033;DHT22;4551;53.164;8.210;2022-08-05T05:36:29;17.90;99.90
9033;DHT22;4551;53.164;8.210;2022-08-05T05:38:59;17.90;99.90
9033;DHT22;4551;53.164;8.210;2022-08-05T05:41:30;18.00;99.90
9033;DHT22;4551;53.164;8.210;2022-08-05T05:44:08;18.00;99.90
9033;DHT22;4551;53.164;8.210;2022-08-05T05:46:57;18.00;99.90
9033;DHT22;4551;53.164;8.210;2022-08-05T05:49:30;18.00;99.90
9033;DHT22;4551;53.164;8.210;2022-08-05T05:51:59;18.10;99.90
9033;DHT22;4551;53.164;8.210;2022-08-05T05:54:34;18.10;99.90
9033;DHT22;4551;53.164;8.210;2022-08-05T05:57:17;18.10;99.90
9033;DHT22;4551;53.164;8.210;2022-08-05T05:59:45;18.10;99.90
9033;DHT22;4551;53.164;8.210;2022-08-05T06:02:15;18.00;99.90
9033;DHT22;4551;53.164;8.210;2022-08-05T06:05:05;17.90;99.90
9033;DHT22;4551;53.164;8.210;2022-08-05T06:07:42;17.90;99.90
9033;DHT22;4551;53.164;8.210;2022-08-05T06:10:28;17.90;99.90
9033;DHT22;4551;53.164;8.210;2022-08-05T06:13:03;17.90;99.90
9033;DHT22;4551;53.164;8.210;2022-08-05T06:15:32;17.80;99.90
9033;DHT22;4551;53.164;8.210;2022-08-05T06:18:20;17.70;99.90
9033;DHT22;4551;53.164;8.210;2022-08-05T06:20:58;17.70;99.90
9033;DHT22;4551;53.164;8.210;2022-08-05T06:23:26;17.70;99.90
9033;DHT22;4551;53.164;8.210;2022-08-05T06:26:11;17.70;99.90
9033;DHT22;4551;53.164;8.210;2022-08-05T06:28:50;17.70;99.90
9033;DHT22;4551;53.164;8.210;2022-08-05T06:31:18;17.70;99.90
9033;DHT22;4551;53.164;8.210;2022-08-05T06:33:48;17.60;99.90
9033;DHT22;4551;53.164;8.210;2022-08-05T06:36:34;17.60;99.90
9033;DHT22;4551;53.164;8.210;2022-08-05T06:39:22;17.60;99.90
9033;DHT22;4551;53.164;8.210;2022-08-05T06:41:56;17.60;99.90
9033;DHT22;4551;53.164;8.210;2022-08-05T06:44:25;17.60;99.90
9033;DHT22;4551;53.164;8.210;2022-08-05T06:46:53;17.60;99.90
9033;DHT22;4551;53.164;8.210;2022-08-05T06:49:22;17.50;99.90
9033;DHT22;4551;53.164;8.210;2022-08-05T06:52:10;17.60;99.90
9033;DHT22;4551;53.164;8.210;2022-08-05T06:54:58;17.60;99.90
9033;DHT22;4551;53.164;8.210;2022-08-05T06:57:29;17.60;99.90
9033;DHT22;4551;53.164;8.210;2022-08-05T07:00:18;17.50;99.90
9033;DHT22;4551;53.164;8.210;2022-08-05T07:02:50;17.50;99.90
9033;DHT22;4551;53.164;8.210;2022-08-05T07:05:19;17.50;99.90
9033;DHT22;4551;53.164;8.210;2022-08-05T07:08:04;17.60;99.90
9033;DHT22;4551;53.164;8.210;2022-08-05T07:10:37;17.50;99.90
9033;DHT22;4551;53.164;8.210;2022-08-05T07:13:21;17.60;99.90
9033;DHT22;4551;53.164;8.210;2022-08-05T07:16:25;17.60;99.90
9033;DHT22;4551;53.164;8.210;2022-08-05T07:19:30;17.60;99.90
9033;DHT22;4551;53.164;8.210;2022-08-05T07:22:19;17.60;99.90
9033;DHT22;4551;53.164;8.210;2022-08-05T07:24:57;17.60;99.90
9033;DHT22;4551;53.164;8.210;2022-08-05T07:27:45;17.60;99.90
9033;DHT22;4551;53.164;8.210;2022-08-05T07:30:30;17.60;99.90
9033;DHT22;4551;53.164;8.210;2022-08-05T07:33:01;17.60;99.90
9033;DHT22;4551;53.164;8.210;2022-08-05T07:35:35;17.60;99.90
9033;DHT22;4551;53.164;8.210;2022-08-05T07:38:24;17.60;99.90
9033;DHT22;4551;53.164;8.210;2022-08-05T07:41:02;17.60;99.90
9033;DHT22;4551;53.164;8.210;2022-08-05T07:43:50;17.70;99.90
9033;DHT22;4551;53.164;8.210;2022-08-05T07:46:23;17.70;99.90
9033;DHT22;4551;53.164;8.210;2022-08-05T07:48:53;17.70;99.90
9033;DHT22;4551;53.164;8.210;2022-08-05T07:51:32;17.70;99.90
9033;DHT22;4551;53.164;8.210;2022-08-05T07:54:04;17.70;99.90
9033;DHT22;4551;53.164;8.210;2022-08-05T07:56:35;17.70;99.90
9033;DHT22;4551;53.164;8.210;2022-08-05T07:59:24;17.80;99.90
9033;DHT22;4551;53.164;8.210;2022-08-05T08:02:07;17.70;99.90
9033;DHT22;4551;53.164;8.210;2022-08-05T08:04:44;17.80;99.90
9033;DHT22;4551;53.164;8.210;2022-08-05T08:07:14;17.80;99.90
9033;DHT22;4551;53.164;8.210;2022-08-05T08:09:44;17.80;99.90
9033;DHT22;4551;53.164;8.210;2022-08-05T08:12:14;17.80;99.90
9033;DHT22;4551;53.164;8.210;2022-08-05T08:15:02;17.70;99.90
9033;DHT22;4551;53.164;8.210;2022-08-05T08:17:42;17.90;99.90
9033;DHT22;4551;53.164;8.210;2022-08-05T08:20:18;17.90;99.90
9033;DHT22;4551;53.164;8.210;2022-08-05T08:23:07;17.90;99.90
9033;DHT22;4551;53.164;8.210;2022-08-05T08:25:55;17.90;99.90
9033;DHT22;4551;53.164;8.210;2022-08-05T08:28:28;18.00;99.90
9033;DHT22;4551;53.164;8.210;2022-08-05T08:31:08;18.00;99.90
9033;DHT22;4551;53.164;8.210;2022-08-05T08:33:45;18.00;99.90
9033;DHT22;4551;53.164;8.210;2022-08-05T08:36:19;18.10;99.90
9033;DHT22;4551;53.164;8.210;2022-08-05T08:39:07;18.00;99.90
9033;DHT22;4551;53.164;8.210;2022-08-05T08:41:43;18.10;99.90
9033;DHT22;4551;53.164;8.210;2022-08-05T08:44:19;18.10;99.90
9033;DHT22;4551;53.164;8.210;2022-08-05T08:47:08;18.10;99.90
9033;DHT22;4551;53.164;8.210;2022-08-05T08:49:58;18.10;99.90
9033;DHT22;4551;53.164;8.210;2022-08-05T08:52:50;18.10;99.90
9033;DHT22;4551;53.164;8.210;2022-08-05T08:55:20;18.20;99.90
9033;DHT22;4551;53.164;8.210;2022-08-05T08:58:09;18.20;99.90
9033;DHT22;4551;53.164;8.210;2022-08-05T09:00:39;18.20;99.90
9033;DHT22;4551;53.164;8.210;2022-08-05T09:03:10;18.30;99.90
9033;DHT22;4551;53.164;8.210;2022-08-05T09:05:43;18.30;99.90
9033;DHT22;4551;53.164;8.210;2022-08-05T09:08:32;18.30;99.90
9033;DHT22;4551;53.164;8.210;2022-08-05T09:11:00;18.40;99.90
9033;DHT22;4551;53.164;8.210;2022-08-05T09:13:29;18.40;99.90
9033;DHT22;4551;53.164;8.210;2022-08-05T09:16:18;18.50;99.90
9033;DHT22;4551;53.164;8.210;2022-08-05T09:18:52;18.50;99.90
9033;DHT22;4551;53.164;8.210;2022-08-05T09:21:22;18.50;99.90
9033;DHT22;4551;53.164;8.210;2022-08-05T09:24:14;18.50;99.90
9033;DHT22;4551;53.164;8.210;2022-08-05T09:26:46;18.50;99.90
9033;DHT22;4551;53.164;8.210;2022-08-05T09:29:18;18.60;99.90
9033;DHT22;4551;53.164;8.210;2022-08-05T09:32:00;18.60;99.90
9033;DHT22;4551;53.164;8.210;2022-08-05T09:34:51;18.60;99.90
9033;DHT22;4551;53.164;8.210;2022-08-05T09:37:24;18.60;99.90
9033;DHT22;4551;53.164;8.210;2022-08-05T09:40:29;18.60;99.90
9033;DHT22;4551;53.164;8.210;2022-08-05T09:42:59;18.60;99.90
9033;DHT22;4551;53.164;8.210;2022-08-05T09:45:37;18.60;99.90
9033;DHT22;4551;53.164;8.210;2022-08-05T09:48:26;18.60;99.90
9033;DHT22;4551;53.164;8.210;2022-08-05T09:50:57;18.60;99.90
9033;DHT22;4551;53.164;8.210;2022-08-05T09:53:28;18.70;99.90
9033;DHT22;4551;53.164;8.210;2022-08-05T09:56:24;18.70;99.90
9033;DHT22;4551;53.164;8.210;2022-08-05T09:58:57;18.70;99.90
9033;DHT22;4551;53.164;8.210;2022-08-05T10:01:26;18.80;99.90
9033;DHT22;4551;53.164;8.210;2022-08-05T10:04:00;18.80;99.90
9033;DHT22;4551;53.164;8.210;2022-08-05T10:06:37;18.90;99.90
9033;DHT22;4551;53.164;8.210;2022-08-05T10:09:12;18.90;99.90
9033;DHT22;4551;53.164;8.210;2022-08-05T10:12:06;18.90;99.90
9033;DHT22;4551;53.164;8.210;2022-08-05T10:15:12;18.90;99.90
9033;DHT22;4551;53.164;8.210;2022-08-05T10:18:05;18.80;99.90
9033;DHT22;4551;53.164;8.210;2022-08-05T10:20:38;18.90;99.90
9033;DHT22;4551;53.164;8.210;2022-08-05T10:23:07;18.90;99.90
9033;DHT22;4551;53.164;8.210;2022-08-05T10:25:58;19.00;99.90
9033;DHT22;4551;53.164;8.210;2022-08-05T10:28:27;19.00;99.90
9033;DHT22;4551;53.164;8.210;2022-08-05T10:30:57;19.00;99.90
9033;DHT22;4551;53.164;8.210;2022-08-05T10:33:45;19.10;99.90
9033;DHT22;4551;53.164;8.210;2022-08-05T10:36:20;19.10;99.90
9033;DHT22;4551;53.164;8.210;2022-08-05T10:38:59;19.10;99.90
9033;DHT22;4551;53.164;8.210;2022-08-05T10:41:44;19.10;99.90
9033;DHT22;4551;53.164;8.210;2022-08-05T10:44:18;19.20;99.90
9033;DHT22;4551;53.164;8.210;2022-08-05T10:46:48;19.20;99.90
9033;DHT22;4551;53.164;8.210;2022-08-05T10:49:21;19.20;99.90
9033;DHT22;4551;53.164;8.210;2022-08-05T10:51:59;19.20;99.90
9033;DHT22;4551;53.164;8.210;2022-08-05T10:55:03;19.20;99.90
9033;DHT22;4551;53.164;8.210;2022-08-05T10:57:33;19.20;99.90
9033;DHT22;4551;53.164;8.210;2022-08-05T11:00:09;19.30;99.90
9033;DHT22;4551;53.164;8.210;2022-08-05T11:03:08;19.30;99.90
9033;DHT22;4551;53.164;8.210;2022-08-05T11:06:06;19.40;99.90
9033;DHT22;4551;53.164;8.210;2022-08-05T11:09:18;19.40;99.90
9033;DHT22;4551;53.164;8.210;2022-08-05T11:12:42;19.50;99.90
9033;DHT22;4551;53.164;8.210;2022-08-05T11:15:23;19.50;99.90
9033;DHT22;4551;53.164;8.210;2022-08-05T11:18:25;19.60;99.90
9033;DHT22;4551;53.164;8.210;2022-08-05T11:20:58;19.60;99.90
9033;DHT22;4551;53.164;8.210;2022-08-05T11:23:33;19.60;99.90
9033;DHT22;4551;53.164;8.210;2022-08-05T11:26:22;19.60;99.90
9033;DHT22;4551;53.164;8.210;2022-08-05T11:29:00;19.60;99.90
9033;DHT22;4551;53.164;8.210;2022-08-05T11:31:40;19.60;99.90
9033;DHT22;4551;53.164;8.210;2022-08-05T11:34:39;19.60;99.90
9033;DHT22;4551;53.164;8.210;2022-08-05T11:37:42;19.70;99.90
9033;DHT22;4551;53.164;8.210;2022-08-05T11:40:59;19.70;99.90
9033;DHT22;4551;53.164;8.210;2022-08-05T11:43:55;19.70;99.90
9033;DHT22;4551;53.164;8.210;2022-08-05T11:46:35;19.80;99.90
9033;DHT22;4551;53.164;8.210;2022-08-05T11:49:24;19.80;99.90
9033;DHT22;4551;53.164;8.210;2022-08-05T11:51:53;19.80;99.90
9033;DHT22;4551;53.164;8.210;2022-08-05T11:54:25;19.70;99.90
9033;DHT22;4551;53.164;8.210;2022-08-05T11:57:02;19.80;99.90
9033;DHT22;4551;53.164;8.210;2022-08-05T11:59:50;19.80;99.90
9033;DHT22;4551;53.164;8.210;2022-08-05T12:02:25;19.90;99.90
9033;DHT22;4551;53.164;8.210;2022-08-05T12:04:59;20.10;99.90
9033;DHT22;4551;53.164;8.210;2022-08-05T12:07:35;20.20;99.90
9033;DHT22;4551;53.164;8.210;2022-08-05T12:10:26;20.30;99.90
9033;DHT22;4551;53.164;8.210;2022-08-05T12:13:13;20.30;99.90
9033;DHT22;4551;53.164;8.210;2022-08-05T12:15:45;20.40;99.90
9033;DHT22;4551;53.164;8.210;2022-08-05T12:18:26;20.40;99.90
9033;DHT22;4551;53.164;8.210;2022-08-05T12:21:09;20.50;99.90
9033;DHT22;4551;53.164;8.210;2022-08-05T12:23:38;20.60;99.90
9033;DHT22;4551;53.164;8.210;2022-08-05T12:26:09;20.70;99.90
9033;DHT22;4551;53.164;8.210;2022-08-05T12:28:37;20.80;99.90
9033;DHT22;4551;53.164;8.210;2022-08-05T12:31:05;20.90;99.90
9033;DHT22;4551;53.164;8.210;2022-08-05T12:33:35;21.00;99.90
9033;DHT22;4551;53.164;8.210;2022-08-05T12:36:05;21.10;99.90
9033;DHT22;4551;53.164;8.210;2022-08-05T12:38:36;21.20;99.90
9033;DHT22;4551;53.164;8.210;2022-08-05T12:41:07;21.30;99.90
9033;DHT22;4551;53.164;8.210;2022-08-05T12:43:55;21.50;99.90
9033;DHT22;4551;53.164;8.210;2022-08-05T12:46:25;21.50;99.90
9033;DHT22;4551;53.164;8.210;2022-08-05T12:48:58;21.40;99.90
9033;DHT22;4551;53.164;8.210;2022-08-05T12:51:42;21.50;99.90
9033;DHT22;4551;53.164;8.210;2022-08-05T12:54:31;21.40;99.90
9033;DHT22;4551;53.164;8.210;2022-08-05T12:57:01;21.30;99.90
9033;DHT22;4551;53.164;8.210;2022-08-05T12:59:43;21.20;99.90
9033;DHT22;4551;53.164;8.210;2022-08-05T13:02:34;21.30;99.90
9033;DHT22;4551;53.164;8.210;2022-08-05T13:05:07;21.40;99.90
9033;DHT22;4551;53.164;8.210;2022-08-05T13:07:41;21.20;99.90
9033;DHT22;4551;53.164;8.210;2022-08-05T13:10:30;21.00;99.90
9033;DHT22;4551;53.164;8.210;2022-08-05T13:12:58;21.00;99.90
9033;DHT22;4551;53.164;8.210;2022-08-05T13:15:30;21.00;99.90
9033;DHT22;4551;53.164;8.210;2022-08-05T13:18:08;21.10;99.90
9033;DHT22;4551;53.164;8.210;2022-08-05T13:20:37;21.10;99.90
9033;DHT22;4551;53.164;8.210;2022-08-05T13:23:06;21.30;99.90
9033;DHT22;4551;53.164;8.210;2022-08-05T13:25:35;21.30;99.90
9033;DHT22;4551;53.164;8.210;2022-08-05T13:28:23;21.40;99.90
9033;DHT22;4551;53.164;8.210;2022-08-05T13:30:51;21.60;99.90
9033;DHT22;4551;53.164;8.210;2022-08-05T13:33:19;21.60;99.90
9033;DHT22;4551;53.164;8.210;2022-08-05T13:36:12;21.60;99.90
9033;DHT22;4551;53.164;8.210;2022-08-05T13:38:40;21.60;99.90
9033;DHT22;4551;53.164;8.210;2022-08-05T13:41:09;21.70;99.90
9033;DHT22;4551;53.164;8.210;2022-08-05T13:43:38;21.80;99.90
9033;DHT22;4551;53.164;8.210;2022-08-05T13:46:20;21.90;99.90
9033;DHT22;4551;53.164;8.210;2022-08-05T13:49:08;22.00;99.90
9033;DHT22;4551;53.164;8.210;2022-08-05T13:51:40;22.00;99.90
9033;DHT22;4551;53.164;8.210;2022-08-05T13:54:13;21.80;99.90
9033;DHT22;4551;53.164;8.210;2022-08-05T13:56:43;21.70;99.90
9033;DHT22;4551;53.164;8.210;2022-08-05T13:59:18;21.40;99.90
9033;DHT22;4551;53.164;8.210;2022-08-05T14:01:52;21.50;99.90
9033;DHT22;4551;53.164;8.210;2022-08-05T14:04:26;21.50;99.90
9033;DHT22;4551;53.164;8.210;2022-08-05T14:07:19;21.60;99.90
9033;DHT22;4551;53.164;8.210;2022-08-05T14:10:10;21.80;99.90
9033;DHT22;4551;53.164;8.210;2022-08-05T14:12:38;22.00;99.90
9033;DHT22;4551;53.164;8.210;2022-08-05T14:15:14;22.30;99.90
9033;DHT22;4551;53.164;8.210;2022-08-05T14:18:02;22.30;99.90
9033;DHT22;4551;53.164;8.210;2022-08-05T14:20:31;22.30;99.90
9033;DHT22;4551;53.164;8.210;2022-08-05T14:23:00;22.30;99.90
9033;DHT22;4551;53.164;8.210;2022-08-05T14:25:28;22.30;99.90
9033;DHT22;4551;53.164;8.210;2022-08-05T14:27:57;22.50;99.90
9033;DHT22;4551;53.164;8.210;2022-08-05T14:30:26;22.50;99.90
9033;DHT22;4551;53.164;8.210;2022-08-05T14:32:55;22.60;99.90
9033;DHT22;4551;53.164;8.210;2022-08-05T14:35:24;22.70;99.90
9033;DHT22;4551;53.164;8.210;2022-08-05T14:38:14;22.90;99.90
9033;DHT22;4551;53.164;8.210;2022-08-05T14:41:00;23.10;99.90
9033;DHT22;4551;53.164;8.210;2022-08-05T14:43:33;22.70;99.90
9033;DHT22;4551;53.164;8.210;2022-08-05T14:46:22;22.80;99.90
9033;DHT22;4551;53.164;8.210;2022-08-05T14:48:55;22.80;99.90
9033;DHT22;4551;53.164;8.210;2022-08-05T14:51:24;22.90;99.90
9033;DHT22;4551;53.164;8.210;2022-08-05T14:53:58;22.80;99.90
9033;DHT22;4551;53.164;8.210;2022-08-05T14:56:46;22.60;99.90
9033;DHT22;4551;53.164;8.210;2022-08-05T14:59:16;22.70;99.90
9033;DHT22;4551;53.164;8.210;2022-08-05T15:01:47;22.70;99.90
9033;DHT22;4551;53.164;8.210;2022-08-05T15:04:16;22.80;99.90
9033;DHT22;4551;53.164;8.210;2022-08-05T15:06:48;23.10;99.90
9033;DHT22;4551;53.164;8.210;2022-08-05T15:09:19;23.10;99.90
9033;DHT22;4551;53.164;8.210;2022-08-05T15:12:07;23.00;99.90
9033;DHT22;4551;53.164;8.210;2022-08-05T15:14:43;23.20;99.90
9033;DHT22;4551;53.164;8.210;2022-08-05T15:17:17;23.20;99.90
9033;DHT22;4551;53.164;8.210;2022-08-05T15:20:07;23.40;99.90
9033;DHT22;4551;53.164;8.210;2022-08-05T15:22:46;23.50;99.90
9033;DHT22;4551;53.164;8.210;2022-08-05T15:25:22;23.50;99.90
9033;DHT22;4551;53.164;8.210;2022-08-05T15:28:12;23.50;99.90
9033;DHT22;4551;53.164;8.210;2022-08-05T15:30:42;23.10;99.90
9033;DHT22;4551;53.164;8.210;2022-08-05T15:33:12;23.00;99.90
9033;DHT22;4551;53.164;8.210;2022-08-05T15:36:01;23.20;99.90
9033;DHT22;4551;53.164;8.210;2022-08-05T15:38:30;23.40;99.90
9033;DHT22;4551;53.164;8.210;2022-08-05T15:41:08;23.30;99.90
9033;DHT22;4551;53.164;8.210;2022-08-05T15:43:50;23.00;99.90
9033;DHT22;4551;53.164;8.210;2022-08-05T15:46:21;22.90;99.90
9033;DHT22;4551;53.164;8.210;2022-08-05T15:48:51;23.00;99.90
9033;DHT22;4551;53.164;8.210;2022-08-05T15:51:35;22.80;99.90
9033;DHT22;4551;53.164;8.210;2022-08-05T15:54:23;22.90;99.90
9033;DHT22;4551;53.164;8.210;2022-08-05T15:57:05;23.00;99.90
9033;DHT22;4551;53.164;8.210;2022-08-05T15:59:34;23.00;99.90
9033;DHT22;4551;53.164;8.210;2022-08-05T16:02:04;22.70;99.90
9033;DHT22;4551;53.164;8.210;2022-08-05T16:04:40;22.90;99.90
9033;DHT22;4551;53.164;8.210;2022-08-05T16:07:08;23.40;99.90
9033;DHT22;4551;53.164;8.210;2022-08-05T16:09:36;23.30;99.90
9033;DHT22;4551;53.164;8.210;2022-08-05T16:12:09;22.60;99.90
9033;DHT22;4551;53.164;8.210;2022-08-05T16:14:41;22.30;99.90
9033;DHT22;4551;53.164;8.210;2022-08-05T16:17:10;22.20;99.90
9033;DHT22;4551;53.164;8.210;2022-08-05T16:19:38;22.00;99.90
9033;DHT22;4551;53.164;8.210;2022-08-05T16:22:27;22.20;99.90
9033;DHT22;4551;53.164;8.210;2022-08-05T16:25:00;22.30;99.90
9033;DHT22;4551;53.164;8.210;2022-08-05T16:27:37;22.50;99.90
9033;DHT22;4551;53.164;8.210;2022-08-05T16:30:25;22.60;99.90
9033;DHT22;4551;53.164;8.210;2022-08-05T16:32:55;22.30;99.90
9033;DHT22;4551;53.164;8.210;2022-08-05T16:35:24;22.10;99.90
9033;DHT22;4551;53.164;8.210;2022-08-05T16:37:58;22.10;99.90
9033;DHT22;4551;53.164;8.210;2022-08-05T16:40:46;22.20;99.90
9033;DHT22;4551;53.164;8.210;2022-08-05T16:43:28;22.10;99.90
9033;DHT22;4551;53.164;8.210;2022-08-05T16:45:58;21.80;99.90
9033;DHT22;4551;53.164;8.210;2022-08-05T16:48:47;21.50;99.90
9033;DHT22;4551;53.164;8.210;2022-08-05T16:51:15;21.40;99.90
9033;DHT22;4551;53.164;8.210;2022-08-05T16:53:43;21.10;99.90
9033;DHT22;4551;53.164;8.210;2022-08-05T16:56:32;20.90;99.90
9033;DHT22;4551;53.164;8.210;2022-08-05T16:59:05;20.80;99.90
9033;DHT22;4551;53.164;8.210;2022-08-05T17:01:35;20.70;99.90
9033;DHT22;4551;53.164;8.210;2022-08-05T17:04:20;20.40;99.90
9033;DHT22;4551;53.164;8.210;2022-08-05T17:06:49;20.60;99.90
9033;DHT22;4551;53.164;8.210;2022-08-05T17:09:19;20.60;99.90
9033;DHT22;4551;53.164;8.210;2022-08-05T17:11:49;20.60;99.90
9033;DHT22;4551;53.164;8.210;2022-08-05T17:14:27;20.70;99.90